sensor_id;sensor_type;location;lat;lon;timestamp;temperature;humidity
5960;DHT22;3006;50.956;7.002;2023-04-24T00:01:44;13.80;99.90
5960;DHT22;3006;50.956;7.002;2023-04-24T00:04:12;13.80;99.90
5960;DHT22;3006;50.956;7.002;2023-04-24T00:06:43;13.80;99.90
5960;DHT22;3006;50.956;7.002;2023-04-24T00:09:11;13.80;99.90
5960;DHT22;3006;50.956;7.002;2023-04-24T00:11:39;13.80;99.90
5960;DHT22;3006;50.956;7.002;2023-04-24T00:14:07;13.80;99.90
5960;DHT22;3006;50.956;7.002;2023-04-24T00:16:35;13.80;99.90
5960;DHT22;3006;50.956;7.002;2023-04-24T00:19:04;13.80;99.90
5960;DHT22;3006;50.956;7.002;2023-04-24T00:21:33;13.80;99.90
5960;DHT22;3006;50.956;7.002;2023-04-24T00:24:01;13.80;99.90
5960;DHT22;3006;50.956;7.002;2023-04-24T00:26:29;13.80;99.90
5960;DHT22;3006;50.956;7.002;2023-04-24T00:28:57;13.80;99.90
5960;DHT22;3006;50.956;7.002;2023-04-24T00:31:26;13.80;99.90
5960;DHT22;3006;50.956;7.002;2023-04-24T00:33:54;13.80;99.90
5960;DHT22;3006;50.956;7.002;2023-04-24T00:36:23;13.70;99.90
5960;DHT22;3006;50.956;7.002;2023-04-24T00:38:52;13.70;99.90
5960;DHT22;3006;50.956;7.002;2023-04-24T00:41:20;13.70;99.90
5960;DHT22;3006;50.956;7.002;2023-04-24T00:43:48;13.60;99.90
5960;DHT22;3006;50.956;7.002;2023-04-24T00:46:16;13.70;99.90
5960;DHT22;3006;50.956;7.002;2023-04-24T00:48:44;13.70;99.90
5960;DHT22;3006;50.956;7.002;2023-04-24T00:51:13;13.80;99.90
5960;DHT22;3006;50.956;7.002;2023-04-24T00:53:42;13.80;99.90
5960;DHT22;3006;50.956;7.002;2023-04-24T00:56:11;13.80;99.90
5960;DHT22;3006;50.956;7.002;2023-04-24T00:58:39;13.70;99.90
5960;DHT22;3006;50.956;7.002;2023-04-24T01:01:08;13.80;99.90
5960;DHT22;3006;50.956;7.002;2023-04-24T01:03:38;13.80;99.90
5960;DHT22;3006;50.956;7.002;2023-04-24T01:06:07;13.80;99.90
5960;DHT22;3006;50.956;7.002;2023-04-24T01:08:36;13.80;99.90
5960;DHT22;3006;50.956;7.002;2023-04-24T01:11:06;13.70;99.90
5960;DHT22;3006;50.956;7.002;2023-04-24T01:13:34;13.60;99.90
5960;DHT22;3006;50.956;7.002;2023-04-24T01:16:02;13.60;99.90
5960;DHT22;3006;50.956;7.002;2023-04-24T01:18:31;13.50;99.90
5960;DHT22;3006;50.956;7.002;2023-04-24T01:21:03;13.40;99.90
5960;DHT22;3006;50.956;7.002;2023-04-24T01:23:33;13.50;99.90
5960;DHT22;3006;50.956;7.002;2023-04-24T01:26:01;13.50;99.90
5960;DHT22;3006;50.956;7.002;2023-04-24T01:28:29;13.50;99.90
5960;DHT22;3006;50.956;7.002;2023-04-24T01:30:58;13.50;99.90
5960;DHT22;3006;50.956;7.002;2023-04-24T01:33:26;13.50;99.90
5960;DHT22;3006;50.956;7.002;2023-04-24T01:35:54;13.50;99.90
5960;DHT22;3006;50.956;7.002;2023-04-24T01:38:22;13.40;99.90
5960;DHT22;3006;50.956;7.002;2023-04-24T01:40:53;13.40;99.90
5960;DHT22;3006;50.956;7.002;2023-04-24T01:43:21;13.20;99.90
5960;DHT22;3006;50.956;7.002;2023-04-24T01:45:49;13.20;99.90
5960;DHT22;3006;50.956;7.002;2023-04-24T01:48:18;13.10;99.90
5960;DHT22;3006;50.956;7.002;2023-04-24T01:50:46;13.00;99.90
5960;DHT22;3006;50.956;7.002;2023-04-24T01:53:14;12.90;99.90
5960;DHT22;3006;50.956;7.002;2023-04-24T01:55:42;12.90;99.90
5960;DHT22;3006;50.956;7.002;2023-04-24T01:58:13;12.80;99.90
5960;DHT22;3006;50.956;7.002;2023-04-24T02:00:41;12.80;99.90
5960;DHT22;3006;50.956;7.002;2023-04-24T02:03:09;12.70;99.90
5960;DHT22;3006;50.956;7.002;2023-04-24T02:05:37;12.70;99.90
5960;DHT22;3006;50.956;7.002;2023-04-24T02:08:05;12.60;99.90
5960;DHT22;3006;50.956;7.002;2023-04-24T02:10:37;12.50;99.90
5960;DHT22;3006;50.956;7.002;2023-04-24T02:13:05;12.40;99.90
5960;DHT22;3006;50.956;7.002;2023-04-24T02:15:34;12.40;99.90
5960;DHT22;3006;50.956;7.002;2023-04-24T02:18:03;12.30;99.90
5960;DHT22;3006;50.956;7.002;2023-04-24T02:20:31;12.30;99.90
5960;DHT22;3006;50.956;7.002;2023-04-24T02:23:00;12.20;99.90
5960;DHT22;3006;50.956;7.002;2023-04-24T02:25:28;12.30;99.90
5960;DHT22;3006;50.956;7.002;2023-04-24T02:27:56;12.10;99.90
5960;DHT22;3006;50.956;7.002;2023-04-24T02:30:25;12.20;99.90
5960;DHT22;3006;50.956;7.002;2023-04-24T02:32:55;12.10;99.90
5960;DHT22;3006;50.956;7.002;2023-04-24T02:35:23;12.10;99.90
5960;DHT22;3006;50.956;7.002;2023-04-24T02:37:51;12.10;99.90
5960;DHT22;3006;50.956;7.002;2023-04-24T02:40:19;12.00;99.90
5960;DHT22;3006;50.956;7.002;2023-04-24T02:42:47;11.90;99.90
5960;DHT22;3006;50.956;7.002;2023-04-24T02:45:16;12.00;99.90
5960;DHT22;3006;50.956;7.002;2023-04-24T02:47:44;11.90;99.90
5960;DHT22;3006;50.956;7.002;2023-04-24T02:50:14;11.90;99.90
5960;DHT22;3006;50.956;7.002;2023-04-24T02:52:42;12.00;99.90
5960;DHT22;3006;50.956;7.002;2023-04-24T02:55:10;12.00;99.90
5960;DHT22;3006;50.956;7.002;2023-04-24T02:57:38;12.00;99.90
5960;DHT22;3006;50.956;7.002;2023-04-24T03:00:07;12.00;99.90
5960;DHT22;3006;50.956;7.002;2023-04-24T03:02:36;12.00;99.90
5960;DHT22;3006;50.956;7.002;2023-04-24T03:05:04;12.00;99.90
5960;DHT22;3006;50.956;7.002;2023-04-24T03:07:35;12.00;99.90
5960;DHT22;3006;50.956;7.002;2023-04-24T03:10:05;12.00;99.90
5960;DHT22;3006;50.956;7.002;2023-04-24T03:12:33;12.00;99.90
5960;DHT22;3006;50.956;7.002;2023-04-24T03:15:02;12.00;99.90
5960;DHT22;3006;50.956;7.002;2023-04-24T03:17:30;12.00;99.90
5960;DHT22;3006;50.956;7.002;2023-04-24T03:19:58;12.00;99.90
5960;DHT22;3006;50.956;7.002;2023-04-24T03:22:26;12.00;99.90
5960;DHT22;3006;50.956;7.002;2023-04-24T03:24:55;12.00;99.90
5960;DHT22;3006;50.956;7.002;2023-04-24T03:27:24;12.00;99.90
5960;DHT22;3006;50.956;7.002;2023-04-24T03:29:55;12.00;99.90
5960;DHT22;3006;50.956;7.002;2023-04-24T03:32:30;12.00;99.90
5960;DHT22;3006;50.956;7.002;2023-04-24T03:34:59;12.00;99.90
5960;DHT22;3006;50.956;7.002;2023-04-24T03:37:28;12.00;99.90
5960;DHT22;3006;50.956;7.002;2023-04-24T03:40:12;11.90;99.90
5960;DHT22;3006;50.956;7.002;2023-04-24T03:42:40;11.90;99.90
5960;DHT22;3006;50.956;7.002;2023-04-24T03:45:09;11.90;99.90
5960;DHT22;3006;50.956;7.002;2023-04-24T03:47:40;11.90;99.90
5960;DHT22;3006;50.956;7.002;2023-04-24T03:50:09;11.80;99.90
5960;DHT22;3006;50.956;7.002;2023-04-24T03:52:40;11.80;99.90
5960;DHT22;3006;50.956;7.002;2023-04-24T03:55:09;11.70;99.90
5960;DHT22;3006;50.956;7.002;2023-04-24T03:57:45;11.70;99.90
5960;DHT22;3006;50.956;7.002;2023-04-24T04:00:20;11.80;99.90
5960;DHT22;3006;50.956;7.002;2023-04-24T04:02:59;11.80;99.90
5960;DHT22;3006;50.956;7.002;2023-04-24T04:05:28;11.90;99.90
5960;DHT22;3006;50.956;7.002;2023-04-24T04:07:56;12.00;99.90
5960;DHT22;3006;50.956;7.002;2023-04-24T04:10:25;11.90;99.90
5960;DHT22;3006;50.956;7.002;2023-04-24T04:12:54;11.90;99.90
5960;DHT22;3006;50.956;7.002;2023-04-24T04:15:23;11.90;99.90
5960;DHT22;3006;50.956;7.002;2023-04-24T04:17:51;11.90;99.90
5960;DHT22;3006;50.956;7.002;2023-04-24T04:20:19;11.90;99.90
5960;DHT22;3006;50.956;7.002;2023-04-24T04:22:47;11.90;99.90
5960;DHT22;3006;50.956;7.002;2023-04-24T04:25:21;11.90;99.90
5960;DHT22;3006;50.956;7.002;2023-04-24T04:27:50;11.90;99.90
5960;DHT22;3006;50.956;7.002;2023-04-24T04:30:20;11.80;99.90
5960;DHT22;3006;50.956;7.002;2023-04-24T04:32:56;11.80;99.90
5960;DHT22;3006;50.956;7.002;2023-04-24T04:35:25;11.80;99.90
5960;DHT22;3006;50.956;7.002;2023-04-24T04:37:53;11.80;99.90
5960;DHT22;3006;50.956;7.002;2023-04-24T04:40:33;11.70;99.90
5960;DHT22;3006;50.956;7.002;2023-04-24T04:43:04;11.70;99.90
5960;DHT22;3006;50.956;7.002;2023-04-24T04:45:42;11.70;99.90
5960;DHT22;3006;50.956;7.002;2023-04-24T04:48:32;11.70;99.90
5960;DHT22;3006;50.956;7.002;2023-04-24T04:51:04;11.70;99.90
5960;DHT22;3006;50.956;7.002;2023-04-24T04:53:32;11.70;99.90
5960;DHT22;3006;50.956;7.002;2023-04-24T04:56:01;11.70;99.90
5960;DHT22;3006;50.956;7.002;2023-04-24T04:58:39;11.70;99.90
5960;DHT22;3006;50.956;7.002;2023-04-24T05:01:12;11.80;99.90
5960;DHT22;3006;50.956;7.002;2023-04-24T05:03:44;11.80;99.90
5960;DHT22;3006;50.956;7.002;2023-04-24T05:06:15;11.80;99.90
5960;DHT22;3006;50.956;7.002;2023-04-24T05:08:45;11.70;99.90
5960;DHT22;3006;50.956;7.002;2023-04-24T05:11:26;11.70;99.90
5960;DHT22;3006;50.956;7.002;2023-04-24T05:13:56;11.70;99.90
5960;DHT22;3006;50.956;7.002;2023-04-24T05:16:35;11.70;99.90
5960;DHT22;3006;50.956;7.002;2023-04-24T05:19:05;11.70;99.90
5960;DHT22;3006;50.956;7.002;2023-04-24T05:21:39;11.70;99.90
5960;DHT22;3006;50.956;7.002;2023-04-24T05:24:08;11.70;99.90
5960;DHT22;3006;50.956;7.002;2023-04-24T05:26:45;11.70;99.90
5960;DHT22;3006;50.956;7.002;2023-04-24T05:29:17;11.80;99.90
5960;DHT22;3006;50.956;7.002;2023-04-24T05:31:47;11.80;99.90
5960;DHT22;3006;50.956;7.002;2023-04-24T05:34:15;11.90;99.90
5960;DHT22;3006;50.956;7.002;2023-04-24T05:36:45;11.90;99.90
5960;DHT22;3006;50.956;7.002;2023-04-24T05:39:13;11.90;99.90
5960;DHT22;3006;50.956;7.002;2023-04-24T05:41:42;11.90;99.90
5960;DHT22;3006;50.956;7.002;2023-04-24T05:44:10;11.90;99.90
5960;DHT22;3006;50.956;7.002;2023-04-24T05:46:38;11.90;99.90
5960;DHT22;3006;50.956;7.002;2023-04-24T05:49:07;11.80;99.90
5960;DHT22;3006;50.956;7.002;2023-04-24T05:51:36;11.70;99.90
5960;DHT22;3006;50.956;7.002;2023-04-24T05:54:04;11.80;99.90
5960;DHT22;3006;50.956;7.002;2023-04-24T05:56:32;11.70;99.90
5960;DHT22;3006;50.956;7.002;2023-04-24T05:59:03;11.80;99.90
5960;DHT22;3006;50.956;7.002;2023-04-24T06:01:31;11.80;99.90
5960;DHT22;3006;50.956;7.002;2023-04-24T06:04:12;11.80;99.90
5960;DHT22;3006;50.956;7.002;2023-04-24T06:06:41;11.80;99.90
5960;DHT22;3006;50.956;7.002;2023-04-24T06:09:09;11.70;99.90
5960;DHT22;3006;50.956;7.002;2023-04-24T06:11:38;11.70;99.90
5960;DHT22;3006;50.956;7.002;2023-04-24T06:14:12;11.70;99.90
5960;DHT22;3006;50.956;7.002;2023-04-24T06:17:00;11.80;99.90
5960;DHT22;3006;50.956;7.002;2023-04-24T06:19:36;11.70;99.90
5960;DHT22;3006;50.956;7.002;2023-04-24T06:22:04;11.70;99.90
5960;DHT22;3006;50.956;7.002;2023-04-24T06:24:34;11.70;99.90
5960;DHT22;3006;50.956;7.002;2023-04-24T06:27:02;11.80;99.90
5960;DHT22;3006;50.956;7.002;2023-04-24T06:29:30;11.70;99.90
5960;DHT22;3006;50.956;7.002;2023-04-24T06:31:58;11.70;99.90
5960;DHT22;3006;50.956;7.002;2023-04-24T06:34:26;11.70;99.90
5960;DHT22;3006;50.956;7.002;2023-04-24T06:36:56;11.70;99.90
5960;DHT22;3006;50.956;7.002;2023-04-24T06:39:24;11.70;99.90
5960;DHT22;3006;50.956;7.002;2023-04-24T06:41:52;11.70;99.90
5960;DHT22;3006;50.956;7.002;2023-04-24T06:44:20;11.60;99.90
5960;DHT22;3006;50.956;7.002;2023-04-24T06:46:48;11.70;99.90
5960;DHT22;3006;50.956;7.002;2023-04-24T06:49:16;11.60;99.90
5960;DHT22;3006;50.956;7.002;2023-04-24T06:51:44;11.50;99.90
5960;DHT22;3006;50.956;7.002;2023-04-24T06:54:14;11.40;99.90
5960;DHT22;3006;50.956;7.002;2023-04-24T06:56:42;11.30;99.90
5960;DHT22;3006;50.956;7.002;2023-04-24T06:59:12;11.20;99.90
5960;DHT22;3006;50.956;7.002;2023-04-24T07:01:40;11.10;99.90
5960;DHT22;3006;50.956;7.002;2023-04-24T07:04:08;11.00;99.90
5960;DHT22;3006;50.956;7.002;2023-04-24T07:06:36;11.10;99.90
5960;DHT22;3006;50.956;7.002;2023-04-24T07:09:05;11.00;99.90
5960;DHT22;3006;50.956;7.002;2023-04-24T07:11:37;11.00;99.90
5960;DHT22;3006;50.956;7.002;2023-04-24T07:14:07;10.90;99.90
5960;DHT22;3006;50.956;7.002;2023-04-24T07:16:35;10.90;99.90
5960;DHT22;3006;50.956;7.002;2023-04-24T07:19:03;10.90;99.90
5960;DHT22;3006;50.956;7.002;2023-04-24T07:21:32;11.00;99.90
5960;DHT22;3006;50.956;7.002;2023-04-24T07:24:00;10.90;99.90
5960;DHT22;3006;50.956;7.002;2023-04-24T07:26:29;10.90;99.90
5960;DHT22;3006;50.956;7.002;2023-04-24T07:28:58;11.00;99.90
5960;DHT22;3006;50.956;7.002;2023-04-24T07:31:26;10.90;99.90
5960;DHT22;3006;50.956;7.002;2023-04-24T07:33:55;10.90;99.90
5960;DHT22;3006;50.956;7.002;2023-04-24T07:36:24;10.80;99.90
5960;DHT22;3006;50.956;7.002;2023-04-24T07:38:52;10.80;99.90
5960;DHT22;3006;50.956;7.002;2023-04-24T07:41:20;10.70;99.90
5960;DHT22;3006;50.956;7.002;2023-04-24T07:43:50;10.60;99.90
5960;DHT22;3006;50.956;7.002;2023-04-24T07:46:20;10.60;99.90
5960;DHT22;3006;50.956;7.002;2023-04-24T07:48:50;10.60;99.90
5960;DHT22;3006;50.956;7.002;2023-04-24T07:51:35;10.50;99.90
5960;DHT22;3006;50.956;7.002;2023-04-24T07:54:05;10.40;99.90
5960;DHT22;3006;50.956;7.002;2023-04-24T07:56:33;10.30;99.90
5960;DHT22;3006;50.956;7.002;2023-04-24T07:59:05;10.20;99.90
5960;DHT22;3006;50.956;7.002;2023-04-24T08:01:34;10.10;99.90
5960;DHT22;3006;50.956;7.002;2023-04-24T08:04:02;10.10;99.90
5960;DHT22;3006;50.956;7.002;2023-04-24T08:06:31;10.10;99.90
5960;DHT22;3006;50.956;7.002;2023-04-24T08:09:00;10.00;99.90
5960;DHT22;3006;50.956;7.002;2023-04-24T08:11:28;10.00;99.90
5960;DHT22;3006;50.956;7.002;2023-04-24T08:13:56;10.00;99.90
5960;DHT22;3006;50.956;7.002;2023-04-24T08:16:24;10.00;99.90
5960;DHT22;3006;50.956;7.002;2023-04-24T08:18:54;9.90;99.90
5960;DHT22;3006;50.956;7.002;2023-04-24T08:21:22;9.90;99.90
5960;DHT22;3006;50.956;7.002;2023-04-24T08:23:50;9.90;99.90
5960;DHT22;3006;50.956;7.002;2023-04-24T08:26:18;9.80;99.90
5960;DHT22;3006;50.956;7.002;2023-04-24T08:28:46;9.70;99.90
5960;DHT22;3006;50.956;7.002;2023-04-24T08:31:14;9.60;99.90
5960;DHT22;3006;50.956;7.002;2023-04-24T08:33:43;9.50;99.90
5960;DHT22;3006;50.956;7.002;2023-04-24T08:36:13;9.50;99.90
5960;DHT22;3006;50.956;7.002;2023-04-24T08:38:42;9.50;99.90
5960;DHT22;3006;50.956;7.002;2023-04-24T08:41:11;9.40;99.90
5960;DHT22;3006;50.956;7.002;2023-04-24T08:43:40;9.30;99.90
5960;DHT22;3006;50.956;7.002;2023-04-24T08:46:08;9.30;99.90
5960;DHT22;3006;50.956;7.002;2023-04-24T08:48:38;9.30;99.90
5960;DHT22;3006;50.956;7.002;2023-04-24T08:51:07;9.30;99.90
5960;DHT22;3006;50.956;7.002;2023-04-24T08:53:37;9.30;99.90
5960;DHT22;3006;50.956;7.002;2023-04-24T08:56:05;9.30;99.90
5960;DHT22;3006;50.956;7.002;2023-04-24T08:58:35;9.30;99.90
5960;DHT22;3006;50.956;7.002;2023-04-24T09:01:04;9.30;99.90
5960;DHT22;3006;50.956;7.002;2023-04-24T09:03:33;9.30;99.90
5960;DHT22;3006;50.956;7.002;2023-04-24T09:06:02;9.30;99.90
5960;DHT22;3006;50.956;7.002;2023-04-24T09:08:31;9.30;99.90
5960;DHT22;3006;50.956;7.002;2023-04-24T09:11:01;9.30;99.90
5960;DHT22;3006;50.956;7.002;2023-04-24T09:13:30;9.30;99.90
5960;DHT22;3006;50.956;7.002;2023-04-24T09:15:59;9.40;99.90
5960;DHT22;3006;50.956;7.002;2023-04-24T09:18:28;9.40;99.90
5960;DHT22;3006;50.956;7.002;2023-04-24T09:21:00;9.30;99.90
5960;DHT22;3006;50.956;7.002;2023-04-24T09:23:30;9.40;99.90
5960;DHT22;3006;50.956;7.002;2023-04-24T09:26:00;9.40;99.90
5960;DHT22;3006;50.956;7.002;2023-04-24T09:28:32;9.50;99.90
5960;DHT22;3006;50.956;7.002;2023-04-24T09:31:08;9.50;99.90
5960;DHT22;3006;50.956;7.002;2023-04-24T09:33:36;9.50;99.90
5960;DHT22;3006;50.956;7.002;2023-04-24T09:36:05;9.50;99.90
5960;DHT22;3006;50.956;7.002;2023-04-24T09:38:35;9.60;99.90
5960;DHT22;3006;50.956;7.002;2023-04-24T09:41:05;9.60;99.90
5960;DHT22;3006;50.956;7.002;2023-04-24T09:43:35;9.60;99.90
5960;DHT22;3006;50.956;7.002;2023-04-24T09:46:06;9.70;99.90
5960;DHT22;3006;50.956;7.002;2023-04-24T09:48:36;9.70;99.90
5960;DHT22;3006;50.956;7.002;2023-04-24T09:51:05;9.80;99.90
5960;DHT22;3006;50.956;7.002;2023-04-24T09:53:33;9.80;99.90
5960;DHT22;3006;50.956;7.002;2023-04-24T09:56:07;9.90;99.90
5960;DHT22;3006;50.956;7.002;2023-04-24T09:58:38;9.90;99.90
5960;DHT22;3006;50.956;7.002;2023-04-24T10:01:06;10.00;99.90
5960;DHT22;3006;50.956;7.002;2023-04-24T10:03:34;10.10;99.90
5960;DHT22;3006;50.956;7.002;2023-04-24T10:06:03;10.10;99.90
5960;DHT22;3006;50.956;7.002;2023-04-24T10:08:36;10.20;99.90
5960;DHT22;3006;50.956;7.002;2023-04-24T10:11:04;10.10;99.90
5960;DHT22;3006;50.956;7.002;2023-04-24T10:13:34;10.20;99.90
5960;DHT22;3006;50.956;7.002;2023-04-24T10:16:04;10.20;99.90
5960;DHT22;3006;50.956;7.002;2023-04-24T10:18:33;10.30;99.90
5960;DHT22;3006;50.956;7.002;2023-04-24T10:21:02;10.30;99.90
5960;DHT22;3006;50.956;7.002;2023-04-24T10:23:30;10.40;99.90
5960;DHT22;3006;50.956;7.002;2023-04-24T10:26:00;10.60;99.90
5960;DHT22;3006;50.956;7.002;2023-04-24T10:28:30;10.70;99.90
5960;DHT22;3006;50.956;7.002;2023-04-24T10:31:00;10.80;99.90
5960;DHT22;3006;50.956;7.002;2023-04-24T10:33:30;10.80;99.90
5960;DHT22;3006;50.956;7.002;2023-04-24T10:35:59;10.80;99.90
5960;DHT22;3006;50.956;7.002;2023-04-24T10:38:28;10.80;99.90
5960;DHT22;3006;50.956;7.002;2023-04-24T10:41:08;10.80;99.90
5960;DHT22;3006;50.956;7.002;2023-04-24T10:43:39;10.80;99.90
5960;DHT22;3006;50.956;7.002;2023-04-24T10:46:08;10.80;99.90
5960;DHT22;3006;50.956;7.002;2023-04-24T10:48:43;10.80;99.90
5960;DHT22;3006;50.956;7.002;2023-04-24T10:51:12;10.80;99.90
5960;DHT22;3006;50.956;7.002;2023-04-24T10:53:41;10.80;99.90
5960;DHT22;3006;50.956;7.002;2023-04-24T10:56:09;10.80;99.90
5960;DHT22;3006;50.956;7.002;2023-04-24T10:58:40;10.80;99.90
5960;DHT22;3006;50.956;7.002;2023-04-24T11:01:23;10.80;99.90
5960;DHT22;3006;50.956;7.002;2023-04-24T11:03:57;10.80;99.90
5960;DHT22;3006;50.956;7.002;2023-04-24T11:06:29;10.80;99.90
5960;DHT22;3006;50.956;7.002;2023-04-24T11:09:03;10.90;99.90
5960;DHT22;3006;50.956;7.002;2023-04-24T11:11:32;10.80;99.90
5960;DHT22;3006;50.956;7.002;2023-04-24T11:14:05;10.80;99.90
5960;DHT22;3006;50.956;7.002;2023-04-24T11:16:43;10.80;99.90
5960;DHT22;3006;50.956;7.002;2023-04-24T11:19:22;10.80;99.90
5960;DHT22;3006;50.956;7.002;2023-04-24T11:21:57;10.60;99.90
5960;DHT22;3006;50.956;7.002;2023-04-24T11:24:31;10.40;99.90
5960;DHT22;3006;50.956;7.002;2023-04-24T11:27:06;10.30;99.90
5960;DHT22;3006;50.956;7.002;2023-04-24T11:29:42;10.20;99.90
5960;DHT22;3006;50.956;7.002;2023-04-24T11:32:16;10.30;99.90
5960;DHT22;3006;50.956;7.002;2023-04-24T11:34:47;10.30;99.90
5960;DHT22;3006;50.956;7.002;2023-04-24T11:37:16;10.40;99.90
5960;DHT22;3006;50.956;7.002;2023-04-24T11:39:45;10.60;99.90
5960;DHT22;3006;50.956;7.002;2023-04-24T11:42:14;10.80;99.90
5960;DHT22;3006;50.956;7.002;2023-04-24T11:44:43;10.90;99.90
5960;DHT22;3006;50.956;7.002;2023-04-24T11:47:11;10.90;99.90
5960;DHT22;3006;50.956;7.002;2023-04-24T11:49:39;10.90;99.90
5960;DHT22;3006;50.956;7.002;2023-04-24T11:52:09;10.90;99.90
5960;DHT22;3006;50.956;7.002;2023-04-24T11:54:37;10.90;99.90
5960;DHT22;3006;50.956;7.002;2023-04-24T11:57:05;11.00;99.90
5960;DHT22;3006;50.956;7.002;2023-04-24T11:59:37;11.00;99.90
5960;DHT22;3006;50.956;7.002;2023-04-24T12:02:05;11.10;99.90
5960;DHT22;3006;50.956;7.002;2023-04-24T12:04:40;11.20;99.90
5960;DHT22;3006;50.956;7.002;2023-04-24T12:07:10;11.10;99.90
5960;DHT22;3006;50.956;7.002;2023-04-24T12:09:43;11.20;99.90
5960;DHT22;3006;50.956;7.002;2023-04-24T12:12:14;11.30;99.90
5960;DHT22;3006;50.956;7.002;2023-04-24T12:14:53;11.40;99.90
5960;DHT22;3006;50.956;7.002;2023-04-24T12:17:25;11.40;99.90
5960;DHT22;3006;50.956;7.002;2023-04-24T12:19:58;11.40;99.90
5960;DHT22;3006;50.956;7.002;2023-04-24T12:22:35;11.40;99.90
5960;DHT22;3006;50.956;7.002;2023-04-24T12:25:10;11.50;99.90
5960;DHT22;3006;50.956;7.002;2023-04-24T12:27:38;11.50;99.90
5960;DHT22;3006;50.956;7.002;2023-04-24T12:30:11;11.50;99.90
5960;DHT22;3006;50.956;7.002;2023-04-24T12:32:44;11.60;99.90
5960;DHT22;3006;50.956;7.002;2023-04-24T12:35:13;11.70;99.90
5960;DHT22;3006;50.956;7.002;2023-04-24T12:37:43;11.80;99.90
5960;DHT22;3006;50.956;7.002;2023-04-24T12:40:14;11.80;99.90
5960;DHT22;3006;50.956;7.002;2023-04-24T12:42:43;11.90;99.90
5960;DHT22;3006;50.956;7.002;2023-04-24T12:45:12;12.00;99.90
5960;DHT22;3006;50.956;7.002;2023-04-24T12:47:41;12.00;99.90
5960;DHT22;3006;50.956;7.002;2023-04-24T12:50:11;12.00;99.90
5960;DHT22;3006;50.956;7.002;2023-04-24T12:52:40;11.90;99.90
5960;DHT22;3006;50.956;7.002;2023-04-24T12:55:10;11.90;99.90
5960;DHT22;3006;50.956;7.002;2023-04-24T12:57:39;11.80;99.90
5960;DHT22;3006;50.956;7.002;2023-04-24T13:00:08;11.80;99.90
5960;DHT22;3006;50.956;7.002;2023-04-24T13:02:37;11.70;99.90
5960;DHT22;3006;50.956;7.002;2023-04-24T13:05:06;11.60;99.90
5960;DHT22;3006;50.956;7.002;2023-04-24T13:07:34;11.60;99.90
5960;DHT22;3006;50.956;7.002;2023-04-24T13:10:02;11.70;99.90
5960;DHT22;3006;50.956;7.002;2023-04-24T13:12:31;11.90;99.90
5960;DHT22;3006;50.956;7.002;2023-04-24T13:14:59;12.00;99.90
5960;DHT22;3006;50.956;7.002;2023-04-24T13:17:28;12.10;99.90
5960;DHT22;3006;50.956;7.002;2023-04-24T13:19:56;12.20;99.90
5960;DHT22;3006;50.956;7.002;2023-04-24T13:22:24;12.50;99.90
5960;DHT22;3006;50.956;7.002;2023-04-24T13:24:52;12.50;99.90
5960;DHT22;3006;50.956;7.002;2023-04-24T13:27:20;12.50;99.90
5960;DHT22;3006;50.956;7.002;2023-04-24T13:29:49;12.40;99.90
5960;DHT22;3006;50.956;7.002;2023-04-24T13:32:17;12.40;99.90
5960;DHT22;3006;50.956;7.002;2023-04-24T13:34:46;12.30;99.90
5960;DHT22;3006;50.956;7.002;2023-04-24T13:37:14;12.30;99.90
5960;DHT22;3006;50.956;7.002;2023-04-24T13:39:42;12.40;99.90
5960;DHT22;3006;50.956;7.002;2023-04-24T13:42:10;12.50;99.90
5960;DHT22;3006;50.956;7.002;2023-04-24T13:44:40;12.70;99.90
5960;DHT22;3006;50.956;7.002;2023-04-24T13:47:09;12.90;99.90
5960;DHT22;3006;50.956;7.002;2023-04-24T13:49:37;13.00;99.90
5960;DHT22;3006;50.956;7.002;2023-04-24T13:52:05;12.80;99.90
5960;DHT22;3006;50.956;7.002;2023-04-24T13:54:34;12.70;99.90
5960;DHT22;3006;50.956;7.002;2023-04-24T13:57:02;12.60;99.90
5960;DHT22;3006;50.956;7.002;2023-04-24T13:59:30;12.50;99.90
5960;DHT22;3006;50.956;7.002;2023-04-24T14:01:59;12.60;99.90
5960;DHT22;3006;50.956;7.002;2023-04-24T14:04:28;12.50;99.90
5960;DHT22;3006;50.956;7.002;2023-04-24T14:06:56;12.50;99.90
5960;DHT22;3006;50.956;7.002;2023-04-24T14:09:24;12.70;99.90
5960;DHT22;3006;50.956;7.002;2023-04-24T14:11:52;12.90;99.90
5960;DHT22;3006;50.956;7.002;2023-04-24T14:14:20;13.10;99.90
5960;DHT22;3006;50.956;7.002;2023-04-24T14:16:49;13.30;99.90
5960;DHT22;3006;50.956;7.002;2023-04-24T14:19:17;13.50;99.90
5960;DHT22;3006;50.956;7.002;2023-04-24T14:21:46;13.70;99.90
5960;DHT22;3006;50.956;7.002;2023-04-24T14:24:14;13.90;99.90
5960;DHT22;3006;50.956;7.002;2023-04-24T14:26:42;14.00;99.90
5960;DHT22;3006;50.956;7.002;2023-04-24T14:29:10;13.80;99.90
5960;DHT22;3006;50.956;7.002;2023-04-24T14:31:41;13.40;99.90
5960;DHT22;3006;50.956;7.002;2023-04-24T14:34:09;13.30;99.90
5960;DHT22;3006;50.956;7.002;2023-04-24T14:36:37;13.20;99.90
5960;DHT22;3006;50.956;7.002;2023-04-24T14:39:07;13.20;99.90
5960;DHT22;3006;50.956;7.002;2023-04-24T14:41:35;13.30;99.90
5960;DHT22;3006;50.956;7.002;2023-04-24T14:44:04;13.80;99.90
5960;DHT22;3006;50.956;7.002;2023-04-24T14:46:32;14.20;99.90
5960;DHT22;3006;50.956;7.002;2023-04-24T14:49:00;14.30;99.90
5960;DHT22;3006;50.956;7.002;2023-04-24T14:51:28;14.20;99.90
5960;DHT22;3006;50.956;7.002;2023-04-24T14:53:58;14.50;99.90
5960;DHT22;3006;50.956;7.002;2023-04-24T14:56:27;14.30;99.90
5960;DHT22;3006;50.956;7.002;2023-04-24T14:58:55;14.20;99.90
5960;DHT22;3006;50.956;7.002;2023-04-24T15:01:24;14.30;99.90
5960;DHT22;3006;50.956;7.002;2023-04-24T15:03:52;14.00;99.90
5960;DHT22;3006;50.956;7.002;2023-04-24T15:06:20;14.10;99.90
5960;DHT22;3006;50.956;7.002;2023-04-24T15:08:48;14.20;99.90
5960;DHT22;3006;50.956;7.002;2023-04-24T15:11:17;14.10;99.90
5960;DHT22;3006;50.956;7.002;2023-04-24T15:13:46;14.10;99.90
5960;DHT22;3006;50.956;7.002;2023-04-24T15:16:14;14.20;99.90
5960;DHT22;3006;50.956;7.002;2023-04-24T15:18:43;14.20;99.90
5960;DHT22;3006;50.956;7.002;2023-04-24T15:21:11;14.00;99.90
5960;DHT22;3006;50.956;7.002;2023-04-24T15:23:39;13.90;99.90
5960;DHT22;3006;50.956;7.002;2023-04-24T15:26:08;14.00;99.90
5960;DHT22;3006;50.956;7.002;2023-04-24T15:28:36;13.80;99.90
5960;DHT22;3006;50.956;7.002;2023-04-24T15:31:05;13.80;99.90
5960;DHT22;3006;50.956;7.002;2023-04-24T15:33:33;13.70;99.90
5960;DHT22;3006;50.956;7.002;2023-04-24T15:36:01;13.80;99.90
5960;DHT22;3006;50.956;7.002;2023-04-24T15:38:29;13.90;99.90
5960;DHT22;3006;50.956;7.002;2023-04-24T15:40:58;13.70;99.90
5960;DHT22;3006;50.956;7.002;2023-04-24T15:43:26;13.50;99.90
5960;DHT22;3006;50.956;7.002;2023-04-24T15:45:56;13.50;99.90
5960;DHT22;3006;50.956;7.002;2023-04-24T15:48:27;13.50;99.90
5960;DHT22;3006;50.956;7.002;2023-04-24T15:50:55;13.50;99.90
5960;DHT22;3006;50.956;7.002;2023-04-24T15:53:23;13.50;99.90
5960;DHT22;3006;50.956;7.002;2023-04-24T15:55:52;13.50;99.90
5960;DHT22;3006;50.956;7.002;2023-04-24T15:58:20;13.50;99.90
5960;DHT22;3006;50.956;7.002;2023-04-24T16:00:48;13.50;99.90
5960;DHT22;3006;50.956;7.002;2023-04-24T16:03:16;13.40;99.90
5960;DHT22;3006;50.956;7.002;2023-04-24T16:05:46;13.50;99.90
5960;DHT22;3006;50.956;7.002;2023-04-24T16:08:14;13.50;99.90
5960;DHT22;3006;50.956;7.002;2023-04-24T16:10:42;13.50;99.90
5960;DHT22;3006;50.956;7.002;2023-04-24T16:13:12;13.50;99.90
5960;DHT22;3006;50.956;7.002;2023-04-24T16:15:40;13.40;99.90
5960;DHT22;3006;50.956;7.002;2023-04-24T16:18:08;13.40;99.90